Weather History for Socorro, NM

Change the Weather History Date:

Saturday, November 10, 2012

  Actual Average Record
Temperature  
Mean Temperature 52 °F -  
Max Temperature 64 °F 64 °F 73 °F (2013)
Min Temperature 39 °F 29 °F 26 °F (2011)
Degree Days  
Heating Degree Days 14    
Growing Degree Days 2 (Base 50)    
Moisture  
Dew Point 28 °F    
Average Humidity 37    
Maximum Humidity 58    
Minimum Humidity 25    
Precipitation  
Precipitation 0.00 in - - ()
Sea Level Pressure  
Sea Level Pressure 29.81 in    
Wind  
Wind Speed 19 mph (WSW)    
Max Wind Speed 29 mph    
Max Gust Speed 41 mph    
Visibility 10 miles    
Events      
Averages and records for this station are not official NWS values.
T = Trace of Precipitation, MM = Missing Value Source: NWS Daily Summary

Daily Weather History Graph

Daily Weather History Graph

Search for Another Location

Airport:

Trip Planner

Search our weather history database for the weather conditions in past years. The results will help you decide how hot, cold, wet, or windy it might be!

Date:

Astronomy

Nov. 10, 2012 Rise Set
Actual Time 6:35 AM MST 5:06 PM MST
Civil Twilight 6:09 AM MST 5:33 PM MST
Nautical Twilight 5:39 AM MST 6:03 PM MST
Astronomical Twilight 5:10 AM MST 6:32 PM MST
Moon 2:53 AM MST (11/10) 2:48 PM MST (11/10)
Length of Visible Light 11h 23m
Length of Day
10h 30m
Waning Crescent, 14% of the Moon is Illuminated
Nov 10
Waning Crescent
Nov 13
New
Nov 20
First Quarter
Nov 28
Full
Dec 6
Last Quarter

Hourly Weather History & Observations

Time (MST) Temp. Windchill Dew Point Humidity Pressure Visibility Wind Dir Wind Speed Gust Speed Precip Events Conditions
12:15 AM 58.1 °F - 38.8 °F 49% 29.80 in 10.0 mi South 17.3 mph 23.0 mph N/A   Clear
12:35 AM 58.3 °F - 38.3 °F 47% 29.79 in 10.0 mi South 20.7 mph 29.9 mph N/A   Clear
12:55 AM 58.1 °F - 37.8 °F 47% 29.79 in 10.0 mi SSW 21.9 mph 27.6 mph N/A   Clear
1:15 AM 59.0 °F - 37.0 °F 44% 29.79 in 10.0 mi South 20.7 mph 31.1 mph N/A   Clear
1:35 AM 59.2 °F - 37.4 °F 44% 29.79 in 10.0 mi South 20.7 mph 32.2 mph N/A   Clear
1:55 AM 58.8 °F - 37.2 °F 45% 29.78 in 10.0 mi South 24.2 mph 34.5 mph N/A   Clear
2:15 AM 58.8 °F - 37.8 °F 46% 29.77 in 10.0 mi South 26.5 mph 34.5 mph N/A   Clear
2:55 AM 57.7 °F - 38.5 °F 49% 29.76 in 10.0 mi South 18.4 mph 28.8 mph N/A   Clear
3:15 AM 57.0 °F - 38.5 °F 50% 29.76 in 10.0 mi South 12.7 mph 21.9 mph N/A   Clear
3:35 AM 57.2 °F - 38.7 °F 50% 29.76 in 10.0 mi South 17.3 mph 25.3 mph N/A   Clear
3:55 AM 53.8 °F - 38.3 °F 56% 29.76 in 10.0 mi South 12.7 mph 18.4 mph N/A   Clear
4:15 AM 53.1 °F - 38.7 °F 58% 29.76 in 10.0 mi SSE 11.5 mph - N/A   Scattered Clouds
5:35 AM 56.3 °F - 39.6 °F 53% 29.73 in 10.0 mi South 24.2 mph 33.4 mph N/A   Clear
5:55 AM 56.3 °F - 39.6 °F 53% 29.72 in 10.0 mi South 20.7 mph 28.8 mph N/A   Clear
6:15 AM 56.3 °F - 38.8 °F 52% 29.73 in 10.0 mi South 21.9 mph 28.8 mph N/A   Clear
6:35 AM 56.3 °F - 38.5 °F 51% 29.72 in 10.0 mi South 21.9 mph 29.9 mph N/A   Clear
7:15 AM 57.2 °F - 38.3 °F 49% 29.75 in 10.0 mi SSW 17.3 mph 29.9 mph N/A   Clear
7:35 AM 58.5 °F - 38.5 °F 47% 29.76 in 10.0 mi SSW 24.2 mph 32.2 mph N/A   Scattered Clouds
7:55 AM 59.2 °F - 38.3 °F 46% 29.76 in 10.0 mi SSW 21.9 mph 27.6 mph N/A   Scattered Clouds
8:15 AM 60.1 °F - 37.6 °F 43% 29.76 in 10.0 mi SSW 19.6 mph 29.9 mph N/A   Clear
8:35 AM 62.1 °F - 34.9 °F 36% 29.77 in 10.0 mi South 20.7 mph 27.6 mph N/A   Scattered Clouds
9:15 AM 63.5 °F - 32.0 °F 31% 29.77 in 10.0 mi South 20.7 mph 32.2 mph N/A   Mostly Cloudy
9:35 AM 64.0 °F - 30.9 °F 29% 29.77 in 10.0 mi SSW 20.7 mph 33.4 mph N/A   Mostly Cloudy
10:15 AM 62.6 °F - 32.9 °F 33% 29.78 in 10.0 mi WSW 23.0 mph 29.9 mph N/A   Mostly Cloudy
10:35 AM 63.3 °F - 33.1 °F 32% 29.79 in 10.0 mi WSW 26.5 mph 34.5 mph N/A   Scattered Clouds
10:55 AM 63.0 °F - 34.0 °F 34% 29.79 in 10.0 mi SW 25.3 mph 32.2 mph N/A   Clear
11:15 AM 63.3 °F - 33.8 °F 33% 29.80 in 10.0 mi WSW 25.3 mph 40.3 mph N/A   Scattered Clouds
11:35 AM 62.8 °F - 33.4 °F 33% 29.79 in 10.0 mi SW 23.0 mph 29.9 mph N/A   Scattered Clouds
11:55 AM 63.1 °F - 31.6 °F 31% 29.80 in 10.0 mi SW 28.8 mph 41.4 mph N/A   Scattered Clouds
12:15 PM 62.4 °F - 30.6 °F 30% 29.79 in 10.0 mi SSW 26.5 mph 36.8 mph N/A   Clear
12:35 PM 62.6 °F - 29.1 °F 28% 29.78 in 10.0 mi SSW 26.5 mph 36.8 mph N/A   Scattered Clouds
12:55 PM 63.0 °F - 27.1 °F 26% 29.78 in 10.0 mi SW 24.2 mph 32.2 mph N/A   Scattered Clouds
1:15 PM 63.5 °F - 26.8 °F 25% 29.77 in 10.0 mi SW 26.5 mph 32.2 mph N/A   Scattered Clouds
1:35 PM 62.4 °F - 25.5 °F 25% 29.77 in 10.0 mi SSW 28.8 mph 35.7 mph N/A   Scattered Clouds
1:55 PM 62.8 °F - 26.1 °F 25% 29.77 in 10.0 mi SW 17.3 mph 33.4 mph N/A   Scattered Clouds
2:15 PM 60.6 °F - 31.3 °F 33% 29.78 in 10.0 mi WNW 21.9 mph 26.5 mph N/A   Overcast
2:35 PM 57.9 °F - 30.0 °F 35% 29.78 in 10.0 mi West 17.3 mph 26.5 mph N/A   Mostly Cloudy
2:55 PM 58.3 °F - 28.6 °F 32% 29.77 in 10.0 mi West 13.8 mph 17.3 mph N/A   Scattered Clouds
3:15 PM 58.6 °F - 27.0 °F 30% 29.78 in 10.0 mi West 15.0 mph - N/A   Clear
3:35 PM 58.3 °F - 26.1 °F 29% 29.78 in 10.0 mi West 10.4 mph 17.3 mph N/A   Clear
3:55 PM 57.9 °F - 24.8 °F 28% 29.78 in 10.0 mi WNW 9.2 mph - N/A   Scattered Clouds
4:15 PM 57.0 °F - 23.7 °F 28% 29.79 in 10.0 mi WNW 6.9 mph - N/A   Scattered Clouds
4:35 PM 55.0 °F - 21.6 °F 27% 29.79 in 10.0 mi NW 10.4 mph - N/A   Scattered Clouds
4:55 PM 52.7 °F - 19.2 °F 27% 29.80 in 10.0 mi WNW 9.2 mph - N/A   Clear
5:15 PM 50.4 °F - 18.3 °F 28% 29.81 in 10.0 mi NNW 11.5 mph - N/A   Clear
5:35 PM 48.9 °F - 18.5 °F 30% 29.82 in 10.0 mi WNW 11.5 mph - N/A   Clear
5:55 PM 48.0 °F - 17.6 °F 30% 29.83 in 10.0 mi WNW 12.7 mph - N/A   Clear
6:35 PM 46.4 °F 40.4 °F 16.7 °F 31% 29.85 in 10.0 mi WNW 13.8 mph 18.4 mph N/A   Clear
6:55 PM 46.0 °F 39.6 °F 15.8 °F 30% 29.85 in 10.0 mi West 15.0 mph 25.3 mph N/A   Clear
7:15 PM 45.7 °F 37.6 °F 15.4 °F 30% 29.85 in 10.0 mi West 21.9 mph 29.9 mph N/A   Clear
7:35 PM 45.1 °F 36.9 °F 15.6 °F 31% 29.87 in 10.0 mi West 21.9 mph 28.8 mph N/A   Clear
7:55 PM 45.0 °F 37.6 °F 15.6 °F 31% 29.87 in 10.0 mi West 17.3 mph 26.5 mph N/A   Clear
8:15 PM 44.6 °F 38.1 °F 15.4 °F 31% 29.88 in 10.0 mi West 13.8 mph - N/A   Clear
8:35 PM 44.6 °F 37.4 °F 15.1 °F 30% 29.90 in 10.0 mi West 16.1 mph 24.2 mph N/A   Clear
8:55 PM 43.9 °F 37.9 °F 15.6 °F 32% 29.90 in 10.0 mi WNW 11.5 mph 18.4 mph N/A   Clear
9:15 PM 43.3 °F 40.7 °F 15.1 °F 32% 29.91 in 10.0 mi WNW 4.6 mph 10.4 mph N/A   Clear
9:35 PM 42.6 °F 38.4 °F 15.6 °F 34% 29.92 in 10.0 mi North 6.9 mph - N/A   Clear
9:55 PM 40.1 °F 36.9 °F 16.9 °F 39% 29.92 in 10.0 mi NNW 4.6 mph - N/A   Scattered Clouds
10:15 PM 39.7 °F 35.6 °F 15.4 °F 37% 29.92 in 10.0 mi WNW 5.8 mph - N/A   Scattered Clouds
10:35 PM 41.4 °F 35.2 °F 14.7 °F 34% 29.92 in 10.0 mi WNW 10.4 mph - N/A   Clear
10:55 PM 41.4 °F 33.6 °F 14.0 °F 33% 29.92 in 10.0 mi West 15.0 mph 19.6 mph N/A   Clear
11:15 PM 41.5 °F 35.0 °F 13.8 °F 32% 29.92 in 10.0 mi WNW 11.5 mph 20.7 mph N/A   Clear
11:35 PM 40.6 °F 33.4 °F 14.0 °F 34% 29.92 in 10.0 mi WNW 12.7 mph 20.7 mph N/A   Clear
11:55 PM 39.4 °F 32.7 °F 14.2 °F 36% 29.93 in 10.0 mi WNW 10.4 mph - N/A   Clear